createdAt,value
2023-03-01T00:01:50.222Z,2.73
2023-03-01T00:04:19.602Z,3.10
2023-03-01T00:06:48.389Z,2.40
2023-03-01T00:09:16.546Z,2.60
2023-03-01T00:11:44.606Z,2.60
2023-03-01T00:14:12.653Z,2.77
2023-03-01T00:16:42.037Z,2.67
2023-03-01T00:19:11.046Z,2.80
2023-03-01T00:21:41.002Z,2.80
2023-03-01T00:24:09.140Z,2.80
2023-03-01T00:26:37.234Z,2.47
2023-03-01T00:29:05.551Z,2.87
2023-03-01T00:31:34.225Z,2.30
2023-03-01T00:34:03.297Z,2.67
2023-03-01T00:36:32.671Z,2.30
2023-03-01T00:39:02.515Z,2.67
2023-03-01T00:41:30.610Z,2.73
2023-03-01T00:43:58.671Z,2.80
2023-03-01T00:46:28.151Z,2.63
2023-03-01T00:48:56.334Z,2.97
2023-03-01T00:51:25.444Z,2.87
2023-03-01T00:53:53.886Z,2.67
2023-03-01T00:56:23.315Z,2.90
2023-03-01T00:58:51.836Z,2.47
2023-03-01T01:01:20.906Z,2.73
2023-03-01T01:03:50.086Z,2.60
2023-03-01T01:06:19.224Z,2.50
2023-03-01T01:08:47.269Z,3.00
2023-03-01T01:11:15.460Z,2.40
2023-03-01T01:13:46.304Z,2.40
2023-03-01T01:16:14.660Z,3.23
2023-03-01T01:18:42.723Z,3.30
2023-03-01T01:21:11.927Z,2.40
2023-03-01T01:23:40.404Z,3.23
2023-03-01T01:26:08.920Z,2.60
2023-03-01T01:28:36.982Z,3.00
2023-03-01T01:31:06.595Z,2.73
2023-03-01T01:33:34.860Z,3.10
2023-03-01T01:36:08.133Z,3.10
2023-03-01T01:38:36.189Z,2.93
2023-03-01T01:41:05.180Z,2.80
2023-03-01T01:43:35.452Z,3.07
2023-03-01T01:46:04.237Z,3.10
2023-03-01T01:48:41.445Z,2.80
2023-03-01T01:51:14.998Z,3.33
2023-03-01T01:53:43.060Z,2.90
2023-03-01T01:56:11.285Z,3.20
2023-03-01T01:58:39.577Z,3.10
2023-03-01T02:01:07.578Z,2.60
2023-03-01T02:03:38.460Z,2.50
2023-03-01T02:06:09.808Z,3.03
2023-03-01T02:08:39.241Z,3.13
2023-03-01T02:11:07.281Z,2.83
2023-03-01T02:13:35.460Z,3.10
2023-03-01T02:16:05.752Z,3.20
2023-03-01T02:18:33.799Z,3.30
2023-03-01T02:21:10.902Z,3.77
2023-03-01T02:23:38.957Z,2.90
2023-03-01T02:26:10.091Z,3.07
2023-03-01T02:28:39.549Z,2.77
2023-03-01T02:31:25.281Z,3.30
2023-03-01T02:33:53.328Z,3.07
2023-03-01T02:36:22.983Z,3.67
2023-03-01T02:38:51.150Z,3.27
2023-03-01T02:41:19.527Z,2.77
2023-03-01T02:43:48.968Z,2.60
2023-03-01T02:46:18.953Z,3.30
2023-03-01T02:48:48.056Z,2.90
2023-03-01T02:51:24.723Z,3.47
2023-03-01T02:53:58.894Z,3.40
2023-03-01T02:56:27.111Z,3.60
2023-03-01T02:59:01.613Z,3.17
2023-03-01T03:01:37.557Z,2.93
2023-03-01T03:04:06.832Z,3.10
2023-03-01T03:06:34.889Z,3.00
2023-03-01T03:09:02.968Z,2.90
2023-03-01T03:11:31.365Z,3.30
2023-03-01T03:14:03.045Z,3.30
2023-03-01T03:16:31.955Z,2.80
2023-03-01T03:19:06.048Z,2.90
2023-03-01T03:21:34.133Z,2.80
2023-03-01T03:24:07.699Z,3.07
2023-03-01T03:26:37.708Z,3.17
2023-03-01T03:29:07.134Z,3.03
2023-03-01T03:31:35.239Z,3.57
2023-03-01T03:34:03.376Z,3.33
2023-03-01T03:36:31.612Z,3.03
2023-03-01T03:39:00.293Z,3.07
2023-03-01T03:41:31.662Z,3.23
2023-03-01T03:44:01.943Z,3.30
2023-03-01T03:46:31.525Z,3.37
2023-03-01T03:48:59.849Z,3.20
2023-03-01T03:51:27.891Z,3.03
2023-03-01T03:53:55.910Z,3.20
2023-03-01T03:56:28.590Z,3.40
2023-03-01T03:58:56.987Z,3.10
2023-03-01T04:01:25.107Z,3.43
2023-03-01T04:03:55.508Z,3.33
2023-03-01T04:06:23.773Z,3.03
2023-03-01T04:08:52.117Z,3.27
2023-03-01T04:11:29.191Z,3.67
2023-03-01T04:13:58.394Z,3.90
2023-03-01T04:16:26.846Z,3.20
2023-03-01T04:18:56.363Z,3.60
2023-03-01T04:21:24.398Z,3.50
2023-03-01T04:23:53.656Z,3.27
2023-03-01T04:26:22.018Z,3.77
2023-03-01T04:28:51.435Z,3.37
2023-03-01T04:31:22.232Z,3.37
2023-03-01T04:33:52.413Z,3.40
2023-03-01T04:36:23.028Z,3.30
2023-03-01T04:38:51.291Z,3.10
2023-03-01T04:41:20.049Z,3.30
2023-03-01T04:43:49.476Z,2.83
2023-03-01T04:46:18.462Z,3.10
2023-03-01T04:48:49.935Z,3.80
2023-03-01T04:51:19.415Z,3.07
2023-03-01T04:53:48.903Z,3.43
2023-03-01T04:56:16.982Z,3.60
2023-03-01T04:58:45.017Z,3.47
2023-03-01T05:01:16.452Z,3.03
2023-03-01T05:03:45.429Z,3.30
2023-03-01T05:06:13.465Z,3.57
2023-03-01T05:08:41.731Z,3.63
2023-03-01T05:11:11.709Z,3.43
2023-03-01T05:13:40.019Z,3.23
2023-03-01T05:16:12.252Z,3.50
2023-03-01T05:18:40.547Z,3.83
2023-03-01T05:21:09.553Z,3.17
2023-03-01T05:23:37.867Z,3.50
2023-03-01T05:26:09.477Z,3.57
2023-03-01T05:28:45.273Z,3.67
2023-03-01T05:31:13.357Z,4.03
2023-03-01T05:33:42.419Z,3.40
2023-03-01T05:36:11.871Z,3.70
2023-03-01T05:38:40.011Z,4.07
2023-03-01T05:41:14.868Z,4.40
2023-03-01T05:43:45.961Z,3.97
2023-03-01T05:46:16.379Z,3.90
2023-03-01T05:48:44.701Z,3.10
2023-03-01T05:51:13.065Z,3.83
2023-03-01T05:53:41.093Z,3.83
2023-03-01T05:56:09.582Z,3.23
2023-03-01T05:58:39.682Z,3.47
2023-03-01T06:01:13.639Z,3.40
2023-03-01T06:03:41.650Z,4.13
2023-03-01T06:06:09.708Z,3.77
2023-03-01T06:08:37.779Z,3.80
2023-03-01T06:11:06.301Z,2.90
2023-03-01T06:13:34.418Z,3.43
2023-03-01T06:16:02.489Z,3.83
2023-03-01T06:18:31.992Z,4.03
2023-03-01T06:21:00.124Z,3.57
2023-03-01T06:23:28.251Z,4.07
2023-03-01T06:25:56.276Z,3.80
2023-03-01T06:28:24.391Z,4.13
2023-03-01T06:30:52.690Z,3.90
2023-03-01T06:33:21.332Z,3.60
2023-03-01T06:35:50.775Z,3.67
2023-03-01T06:38:19.988Z,3.97
2023-03-01T06:40:48.094Z,3.70
2023-03-01T06:43:16.152Z,4.10
2023-03-01T06:45:49.837Z,4.10
2023-03-01T06:48:17.909Z,4.10
2023-03-01T06:50:46.082Z,4.33
2023-03-01T06:53:15.489Z,4.20
2023-03-01T06:55:43.519Z,4.50
2023-03-01T06:58:11.645Z,4.60
2023-03-01T07:00:41.776Z,4.13
2023-03-01T07:03:10.688Z,4.10
2023-03-01T07:05:38.802Z,3.80
2023-03-01T07:08:07.004Z,4.30
2023-03-01T07:10:39.231Z,3.90
2023-03-01T07:13:08.262Z,4.40
2023-03-01T07:15:36.372Z,4.80
2023-03-01T07:18:04.451Z,3.97
2023-03-01T07:20:37.918Z,4.77
2023-03-01T07:23:07.144Z,4.20
2023-03-01T07:25:35.259Z,4.30
2023-03-01T07:28:04.797Z,4.70
2023-03-01T07:30:33.067Z,4.30
2023-03-01T07:33:01.184Z,4.70
2023-03-01T07:35:29.524Z,4.53
2023-03-01T07:37:57.752Z,4.93
2023-03-01T07:40:25.777Z,4.90
2023-03-01T07:42:57.733Z,5.00
2023-03-01T07:45:27.319Z,4.80
2023-03-01T07:47:55.476Z,4.57
2023-03-01T07:50:23.696Z,4.47
2023-03-01T07:52:51.908Z,4.13
2023-03-01T07:55:20.394Z,5.13
2023-03-01T07:57:48.418Z,4.33
2023-03-01T08:00:16.989Z,4.90
2023-03-01T08:02:51.821Z,4.63
2023-03-01T08:05:20.040Z,4.40
2023-03-01T08:07:48.091Z,4.60
2023-03-01T08:10:16.318Z,4.30
2023-03-01T08:12:44.353Z,5.27
2023-03-01T08:15:13.015Z,4.20
2023-03-01T08:17:41.056Z,4.50
2023-03-01T08:20:13.565Z,4.53
2023-03-01T08:22:41.717Z,4.93
2023-03-01T08:25:10.394Z,4.67
2023-03-01T08:27:43.919Z,4.23
2023-03-01T08:30:13.231Z,4.40
2023-03-01T08:32:41.430Z,4.20
2023-03-01T08:35:11.160Z,4.47
2023-03-01T08:37:39.501Z,4.27
2023-03-01T08:40:10.991Z,5.17
2023-03-01T08:42:39.095Z,4.50
2023-03-01T08:45:08.054Z,4.53
2023-03-01T08:47:36.156Z,4.73
2023-03-01T08:50:04.765Z,4.30
2023-03-01T08:52:34.293Z,4.87
2023-03-01T08:55:03.027Z,4.10
2023-03-01T08:57:32.152Z,4.60
2023-03-01T09:00:00.229Z,4.50
2023-03-01T09:02:28.283Z,4.63
2023-03-01T09:04:56.381Z,3.77
2023-03-01T09:07:29.348Z,4.23
2023-03-01T09:09:58.905Z,3.93
2023-03-01T09:12:27.039Z,4.03
2023-03-01T09:14:55.075Z,4.50
2023-03-01T09:17:23.536Z,4.27
2023-03-01T09:19:51.571Z,4.10
2023-03-01T09:22:19.625Z,4.37
2023-03-01T09:24:47.733Z,4.17
2023-03-01T09:27:19.695Z,4.10
2023-03-01T09:29:47.994Z,4.40
2023-03-01T09:32:16.081Z,4.43
2023-03-01T09:35:01.684Z,3.63
2023-03-01T09:37:29.798Z,4.33
2023-03-01T09:39:57.836Z,4.60
2023-03-01T09:42:27.224Z,3.80
2023-03-01T09:44:58.642Z,4.50
2023-03-01T09:47:27.935Z,3.60
2023-03-01T09:50:00.852Z,3.60
2023-03-01T09:52:32.978Z,3.50
2023-03-01T09:55:01.170Z,4.50
2023-03-01T09:57:35.116Z,3.90
2023-03-01T10:00:35.675Z,3.77
2023-03-01T10:03:11.017Z,3.70
2023-03-01T10:05:43.775Z,3.63
2023-03-01T10:08:34.724Z,3.07
2023-03-01T10:11:02.850Z,3.40
2023-03-01T10:13:37.725Z,2.97
2023-03-01T10:16:08.186Z,3.93
2023-03-01T10:18:37.824Z,3.60
2023-03-01T10:21:11.983Z,3.90
2023-03-01T10:23:40.029Z,3.20
2023-03-01T10:26:20.785Z,3.40
2023-03-01T10:28:55.510Z,3.87
2023-03-01T10:31:29.345Z,3.40
2023-03-01T10:33:58.175Z,3.50
2023-03-01T10:36:26.365Z,3.20
2023-03-01T10:38:55.497Z,3.50
2023-03-01T10:41:26.486Z,3.20
2023-03-01T10:43:56.916Z,3.57
2023-03-01T10:46:29.132Z,3.40
2023-03-01T10:49:26.396Z,3.27
2023-03-01T10:51:54.940Z,3.20
2023-03-01T10:54:24.614Z,3.57
2023-03-01T10:56:53.806Z,3.40
2023-03-01T10:59:28.544Z,3.10
2023-03-01T11:02:24.510Z,3.60
2023-03-01T11:05:03.225Z,3.43
2023-03-01T11:07:31.343Z,3.77
2023-03-01T11:09:59.354Z,3.20
2023-03-01T11:12:29.860Z,3.27
2023-03-01T11:14:59.313Z,3.43
2023-03-01T11:17:29.990Z,3.23
2023-03-01T11:20:27.395Z,2.90
2023-03-01T11:22:57.085Z,3.00
2023-03-01T11:25:27.299Z,3.67
2023-03-01T11:27:55.886Z,3.00
2023-03-01T11:30:26.525Z,3.33
2023-03-01T11:33:02.078Z,3.27
2023-03-01T11:35:30.637Z,3.00
2023-03-01T11:38:04.775Z,3.23
2023-03-01T11:40:35.875Z,2.93
2023-03-01T11:43:08.582Z,3.10
2023-03-01T11:45:44.812Z,2.80
2023-03-01T11:48:48.927Z,2.83
2023-03-01T11:51:21.998Z,2.73
2023-03-01T11:54:31.823Z,3.00
2023-03-01T11:57:02.343Z,3.10
2023-03-01T11:59:51.731Z,3.57
2023-03-01T12:02:45.224Z,3.03
2023-03-01T12:05:35.616Z,2.80
2023-03-01T12:08:06.099Z,3.23
2023-03-01T12:10:35.635Z,3.00
2023-03-01T12:13:39.715Z,3.13
2023-03-01T12:16:17.627Z,3.27
2023-03-01T12:19:08.820Z,2.90
2023-03-01T12:21:46.860Z,3.37
2023-03-01T12:24:28.968Z,3.60
2023-03-01T12:27:04.269Z,2.80
2023-03-01T12:29:33.227Z,2.67
2023-03-01T12:32:23.418Z,3.47
2023-03-01T12:35:15.645Z,3.10
2023-03-01T12:37:48.808Z,2.90
2023-03-01T12:40:35.723Z,3.23
2023-03-01T12:43:15.966Z,2.73
2023-03-01T12:45:52.601Z,2.93
2023-03-01T12:48:30.574Z,3.17
2023-03-01T12:51:01.847Z,3.20
2023-03-01T12:53:31.717Z,3.57
2023-03-01T12:56:03.180Z,3.00
2023-03-01T12:58:47.223Z,3.40
2023-03-01T13:01:21.176Z,3.30
2023-03-01T13:04:18.037Z,3.30
2023-03-01T13:06:53.361Z,3.30
2023-03-01T13:09:25.241Z,2.90
2023-03-01T13:11:53.273Z,3.20
2023-03-01T13:14:46.614Z,3.07
2023-03-01T13:17:34.481Z,2.97
2023-03-01T13:20:02.525Z,3.20
2023-03-01T13:22:35.485Z,3.20
2023-03-01T13:25:14.579Z,3.00
2023-03-01T13:27:42.822Z,3.10
2023-03-01T13:30:42.332Z,3.30
2023-03-01T13:33:40.811Z,3.23
2023-03-01T13:36:09.701Z,3.03
2023-03-01T13:38:48.384Z,3.03
2023-03-01T13:41:16.881Z,3.10
2023-03-01T13:43:46.056Z,2.90
2023-03-01T13:46:17.829Z,3.20
2023-03-01T13:48:46.695Z,3.17
2023-03-01T13:51:14.716Z,3.00
2023-03-01T13:53:45.174Z,3.10
2023-03-01T13:56:15.209Z,3.23
2023-03-01T13:58:51.425Z,3.00
2023-03-01T14:01:27.756Z,2.60
2023-03-01T14:03:56.519Z,3.53
2023-03-01T14:06:25.696Z,2.90
2023-03-01T14:09:11.490Z,2.70
2023-03-01T14:12:09.552Z,3.97
2023-03-01T14:14:51.261Z,3.30
2023-03-01T14:17:37.086Z,3.20
2023-03-01T14:20:10.666Z,2.87
2023-03-01T14:22:38.675Z,3.00
2023-03-01T14:25:18.977Z,2.73
2023-03-01T14:27:47.023Z,3.30
2023-03-01T14:30:16.837Z,3.00
2023-03-01T14:32:44.871Z,3.20
2023-03-01T14:35:22.324Z,3.20
2023-03-01T14:37:50.941Z,3.33
2023-03-01T14:40:26.042Z,2.80
2023-03-01T14:42:54.440Z,2.83
2023-03-01T14:45:22.460Z,2.87
2023-03-01T14:47:50.532Z,3.07
2023-03-01T14:50:23.452Z,3.13
2023-03-01T14:52:52.736Z,2.70
2023-03-01T14:55:21.690Z,3.20
2023-03-01T14:57:52.220Z,3.67
2023-03-01T15:00:21.968Z,2.80
2023-03-01T15:02:50.844Z,3.50
2023-03-01T15:05:28.359Z,2.50
2023-03-01T15:07:56.688Z,2.93
2023-03-01T15:10:25.581Z,2.97
2023-03-01T15:12:55.095Z,3.30
2023-03-01T15:15:34.869Z,3.07
2023-03-01T15:18:15.838Z,2.67
2023-03-01T15:20:43.933Z,3.10
2023-03-01T15:23:23.774Z,2.97
2023-03-01T15:25:57.334Z,3.07
2023-03-01T15:28:28.689Z,2.73
2023-03-01T15:30:58.909Z,2.90
2023-03-01T15:33:32.304Z,3.40
2023-03-01T15:36:00.795Z,2.87
2023-03-01T15:38:34.393Z,2.83
2023-03-01T15:41:23.933Z,2.80
2023-03-01T15:43:55.299Z,2.90
2023-03-01T15:46:28.915Z,3.23
2023-03-01T15:49:03.293Z,2.60
2023-03-01T15:51:34.068Z,2.50
2023-03-01T15:54:04.388Z,2.90
2023-03-01T15:56:32.754Z,2.70
2023-03-01T15:59:03.819Z,3.27
2023-03-01T16:01:35.195Z,3.40
2023-03-01T16:04:03.413Z,3.10
2023-03-01T16:06:31.836Z,2.63
2023-03-01T16:09:00.126Z,2.97
2023-03-01T16:11:28.179Z,2.90
2023-03-01T16:13:56.255Z,2.70
2023-03-01T16:16:25.832Z,2.50
2023-03-01T16:18:55.664Z,2.20
2023-03-01T16:21:24.539Z,3.30
2023-03-01T16:23:53.114Z,2.50
2023-03-01T16:26:21.682Z,2.93
2023-03-01T16:28:49.850Z,2.73
2023-03-01T16:31:21.305Z,2.80
2023-03-01T16:33:52.485Z,3.00
2023-03-01T16:36:21.313Z,3.10
2023-03-01T16:38:49.455Z,2.30
2023-03-01T16:41:18.499Z,3.00
2023-03-01T16:43:47.508Z,2.53
2023-03-01T16:46:17.001Z,2.50
2023-03-01T16:48:45.077Z,2.90
2023-03-01T16:51:14.511Z,2.47
2023-03-01T16:53:46.215Z,2.70
2023-03-01T16:56:15.147Z,2.57
2023-03-01T16:58:43.191Z,2.60
2023-03-01T17:01:21.296Z,2.80
2023-03-01T17:03:49.750Z,3.03
2023-03-01T17:06:21.498Z,2.60
2023-03-01T17:08:49.564Z,2.57
2023-03-01T17:11:18.476Z,2.50
2023-03-01T17:13:46.684Z,2.50
2023-03-01T17:16:17.049Z,2.47
2023-03-01T17:18:45.256Z,3.00
2023-03-01T17:21:13.428Z,2.40
2023-03-01T17:23:44.261Z,2.23
2023-03-01T17:26:13.648Z,2.80
2023-03-01T17:28:43.680Z,2.33
2023-03-01T17:31:11.711Z,2.70
2023-03-01T17:33:39.734Z,2.80
2023-03-01T17:36:07.838Z,2.20
2023-03-01T17:38:36.533Z,2.47
2023-03-01T17:41:06.204Z,2.30
2023-03-01T17:43:35.206Z,2.50
2023-03-01T17:46:03.373Z,2.67
2023-03-01T17:48:32.488Z,2.70
2023-03-01T17:51:00.521Z,2.47
2023-03-01T17:53:28.703Z,2.77
2023-03-01T17:56:01.346Z,2.40
2023-03-01T17:58:30.798Z,3.00
2023-03-01T18:01:07.734Z,2.87
2023-03-01T18:03:35.771Z,3.00
2023-03-01T18:06:04.173Z,2.93
2023-03-01T18:08:32.200Z,2.40
2023-03-01T18:11:00.517Z,2.83
2023-03-01T18:13:29.953Z,2.57
2023-03-01T18:16:01.568Z,3.00
2023-03-01T18:18:29.596Z,2.70
2023-03-01T18:20:58.364Z,2.50
2023-03-01T18:23:26.369Z,2.80
2023-03-01T18:25:58.484Z,2.60
2023-03-01T18:28:26.555Z,2.53
2023-03-01T18:30:58.912Z,2.70
2023-03-01T18:33:26.948Z,2.70
2023-03-01T18:35:55.194Z,2.57
2023-03-01T18:38:23.788Z,2.57
2023-03-01T18:40:52.986Z,2.67
2023-03-01T18:43:21.022Z,3.07
2023-03-01T18:45:49.059Z,2.73
2023-03-01T18:48:18.680Z,2.63
2023-03-01T18:50:46.698Z,2.97
2023-03-01T18:53:14.776Z,2.57
2023-03-01T18:55:42.827Z,2.90
2023-03-01T18:58:11.572Z,2.70
2023-03-01T19:00:39.645Z,3.10
2023-03-01T19:03:07.880Z,2.70
2023-03-01T19:05:37.295Z,3.17
2023-03-01T19:08:05.721Z,2.50
2023-03-01T19:10:33.771Z,2.90
2023-03-01T19:13:02.305Z,3.17
2023-03-01T19:15:30.416Z,3.27
2023-03-01T19:17:59.029Z,3.00
2023-03-01T19:20:27.134Z,2.77
2023-03-01T19:22:56.533Z,2.77
2023-03-01T19:25:24.818Z,2.83
2023-03-01T19:27:52.857Z,2.90
2023-03-01T19:30:21.109Z,2.87
2023-03-01T19:32:49.143Z,2.67
2023-03-01T19:35:17.301Z,2.77
2023-03-01T19:37:45.354Z,2.63
2023-03-01T19:40:15.089Z,3.20
2023-03-01T19:42:43.182Z,3.07
2023-03-01T19:45:14.742Z,3.10
2023-03-01T19:47:47.342Z,3.43
2023-03-01T19:50:15.553Z,3.17
2023-03-01T19:52:43.634Z,3.07
2023-03-01T19:55:15.947Z,3.30
2023-03-01T19:57:44.017Z,3.33
2023-03-01T20:00:15.325Z,3.73
2023-03-01T20:02:43.360Z,3.50
2023-03-01T20:05:11.464Z,3.23
2023-03-01T20:07:39.607Z,3.27
2023-03-01T20:10:08.550Z,3.07
2023-03-01T20:12:38.787Z,3.20
2023-03-01T20:15:07.878Z,3.07
2023-03-01T20:17:35.963Z,3.10
2023-03-01T20:20:04.158Z,3.57
2023-03-01T20:22:32.191Z,3.30
2023-03-01T20:25:00.263Z,3.47
2023-03-01T20:27:28.296Z,3.70
2023-03-01T20:29:57.670Z,3.60
2023-03-01T20:32:25.724Z,3.50
2023-03-01T20:34:55.014Z,3.30
2023-03-01T20:37:23.234Z,3.17
2023-03-01T20:39:51.261Z,3.67
2023-03-01T20:42:19.280Z,3.67
2023-03-01T20:44:47.565Z,3.43
2023-03-01T20:47:23.190Z,3.30
2023-03-01T20:49:52.002Z,3.50
2023-03-01T20:52:20.076Z,3.07
2023-03-01T20:54:48.669Z,3.40
2023-03-01T20:57:16.707Z,3.13
2023-03-01T20:59:44.755Z,3.40
2023-03-01T21:02:12.816Z,3.33
2023-03-01T21:04:42.428Z,3.43
2023-03-01T21:07:10.482Z,3.70
2023-03-01T21:09:38.525Z,3.00
2023-03-01T21:12:10.313Z,3.53
2023-03-01T21:14:42.563Z,3.93
2023-03-01T21:17:10.968Z,4.00
2023-03-01T21:19:39.329Z,3.70
2023-03-01T21:22:08.785Z,3.63
2023-03-01T21:24:36.946Z,3.77
2023-03-01T21:27:06.695Z,3.60
2023-03-01T21:29:34.920Z,3.50
2023-03-01T21:32:04.848Z,3.30
2023-03-01T21:34:33.515Z,4.10
2023-03-01T21:37:02.339Z,3.47
2023-03-01T21:39:31.764Z,3.30
2023-03-01T21:42:00.505Z,3.60
2023-03-01T21:44:29.199Z,3.40
2023-03-01T21:47:02.595Z,3.60
2023-03-01T21:49:30.634Z,3.40
2023-03-01T21:51:58.641Z,3.40
2023-03-01T21:54:26.784Z,4.30
2023-03-01T21:56:56.166Z,3.60
2023-03-01T21:59:24.751Z,3.13
2023-03-01T22:01:53.020Z,3.50
2023-03-01T22:04:26.594Z,3.50
2023-03-01T22:06:54.773Z,3.53
2023-03-01T22:09:23.563Z,3.43
2023-03-01T22:11:53.989Z,3.17
2023-03-01T22:14:23.427Z,3.57
2023-03-01T22:16:53.418Z,3.80
2023-03-01T22:19:21.945Z,3.90
2023-03-01T22:21:50.903Z,3.57
2023-03-01T22:24:26.717Z,3.50
2023-03-01T22:26:54.854Z,3.50
2023-03-01T22:29:29.511Z,3.37
2023-03-01T22:31:57.850Z,3.93
2023-03-01T22:34:26.024Z,3.87
2023-03-01T22:36:54.078Z,3.20
2023-03-01T22:39:22.190Z,3.50
2023-03-01T22:41:50.492Z,3.60
2023-03-01T22:44:19.647Z,3.30
2023-03-01T22:46:49.039Z,3.60
2023-03-01T22:49:17.261Z,3.70
2023-03-01T22:51:47.477Z,3.20
2023-03-01T22:54:15.709Z,3.70
2023-03-01T22:56:44.209Z,3.30
2023-03-01T22:59:13.591Z,3.60
2023-03-01T23:01:42.631Z,3.27
2023-03-01T23:04:12.461Z,3.23
2023-03-01T23:06:50.208Z,3.40
2023-03-01T23:09:18.549Z,3.57
2023-03-01T23:11:46.623Z,3.43
2023-03-01T23:14:21.237Z,3.23
2023-03-01T23:16:49.654Z,3.30
2023-03-01T23:19:19.091Z,3.93
2023-03-01T23:21:50.218Z,3.50
2023-03-01T23:24:19.203Z,3.40
2023-03-01T23:26:50.547Z,3.93
2023-03-01T23:29:18.567Z,2.97
2023-03-01T23:31:46.606Z,4.20
2023-03-01T23:34:14.783Z,3.20
2023-03-01T23:36:45.926Z,3.40
2023-03-01T23:39:14.342Z,3.20
2023-03-01T23:41:42.363Z,3.00
2023-03-01T23:44:13.582Z,3.47
2023-03-01T23:46:43.033Z,3.20
2023-03-01T23:49:11.477Z,3.40
2023-03-01T23:51:47.673Z,3.70
2023-03-01T23:54:16.332Z,3.50
2023-03-01T23:56:44.690Z,3.70
2023-03-01T23:59:14.441Z,3.03
